This is the latest recevied weather packets stored in our database for station/object IU2GZQ-13. If no packets are shown the sender has not sent any weather packets the latest 10 day(s).
| Time | Temp. | Humidity | Pressure | Rain* | Wind** | Luminosity | Snow |
|---|---|---|---|---|---|---|---|
| 1778248236 | 22.22° C | 57% | 1016.1 hPa | 0 mm | - | - | - |
| 1778247633 | 22.22° C | 56% | 1016.1 hPa | 0 mm | - | - | - |
| 1778247031 | 22.22° C | 57% | 1016.3 hPa | 0 mm | - | - | - |
| 1778246427 | 22.22° C | 57% | 1016.4 hPa | 0 mm | - | - | - |
| 1778245825 | 22.22° C | 57% | 1016.4 hPa | 0 mm | - | - | - |
| 1778245302 | 22.78° C | 56% | 1016.4 hPa | 0 mm | - | - | - |
| 1778244620 | 22.78° C | 55% | 1016.5 hPa | 0 mm | - | - | - |
| 1778244017 | 22.78° C | 56% | 1016.6 hPa | 0 mm | - | - | - |
| 1778243434 | 22.22° C | 58% | 1016.6 hPa | 0 mm | - | - | - |
| 1778242851 | 22.22° C | 59% | 1016.7 hPa | 0 mm | - | - | - |
| 1778242229 | 22.22° C | 60% | 1016.7 hPa | 0 mm | - | - | - |
| 1778241686 | 22.22° C | 58% | 1016.9 hPa | 0 mm | - | - | - |
| 1778241064 | 22.22° C | 60% | 1016.8 hPa | 0 mm | - | - | - |
| 1778240421 | 22.22° C | 58% | 1016.9 hPa | 0 mm | - | - | - |
| 1778239819 | 21.67° C | 59% | 1016.9 hPa | 0 mm | - | - | - |
| 1778239295 | 21.11° C | 61% | 1016.9 hPa | 0 mm | - | - | - |
| 1778238633 | 20.56° C | 62% | 1017 hPa | 0 mm | - | - | - |
| 1778238029 | 21.11° C | 60% | 1017.1 hPa | 0 mm | - | - | - |
| 1778237470 | 20.56° C | 63% | 1017.1 hPa | 0 mm | - | - | - |
| 1778236828 | 20.56° C | 66% | 1017.3 hPa | 0 mm | - | - | - |
| 1778236224 | 20.56° C | 67% | 1017.2 hPa | 0 mm | - | - | - |
| 1778235622 | 20.56° C | 65% | 1017.3 hPa | 0 mm | - | - | - |
| 1778235019 | 20.56° C | 66% | 1017.3 hPa | 0 mm | - | - | - |
| 1778234455 | 20° C | 67% | 1017.3 hPa | 0 mm | - | - | - |
| 1778233911 | 20° C | 67% | 1017.4 hPa | 0 mm | - | - | - |
* Rain latest hour (hover to see other rain measurements)
** Current wind speed in m/s (hover to see current wind gust speed)